createdAt,value
2016-06-01T00:00:09.757Z,16.6
2016-06-01T00:00:19.741Z,16.5
2016-06-01T00:00:29.725Z,16.5
2016-06-01T00:00:39.741Z,16.5
2016-06-01T00:00:49.572Z,16.6
2016-06-01T00:00:59.728Z,16.6
2016-06-01T00:01:09.728Z,16.6
2016-06-01T00:01:19.728Z,16.6
2016-06-01T00:01:30.478Z,16.6
2016-06-01T00:01:42.010Z,16.6
2016-06-01T00:01:53.700Z,16.6
2016-06-01T00:02:04.888Z,16.6
2016-06-01T00:02:16.544Z,16.6
2016-06-01T00:02:28.200Z,16.6
2016-06-01T00:02:39.716Z,16.5
2016-06-01T00:02:51.375Z,16.6
2016-06-01T00:03:02.734Z,16.6
2016-06-01T00:03:12.641Z,16.6
2016-06-01T00:03:22.594Z,16.6
2016-06-01T00:03:32.734Z,16.6
2016-06-01T00:03:42.734Z,16.5
2016-06-01T00:03:52.736Z,16.5
2016-06-01T00:04:02.736Z,16.5
2016-06-01T00:04:12.736Z,16.5
2016-06-01T00:04:22.736Z,16.5
2016-06-01T00:04:32.580Z,16.5
2016-06-01T00:04:42.564Z,16.5
2016-06-01T00:04:52.583Z,16.5
2016-06-01T00:05:02.724Z,16.5
2016-06-01T00:05:12.567Z,16.5
2016-06-01T00:05:22.708Z,16.5
2016-06-01T00:05:32.708Z,16.6
2016-06-01T00:05:42.708Z,16.5
2016-06-01T00:05:52.554Z,16.5
2016-06-01T00:06:02.694Z,16.5
2016-06-01T00:06:12.694Z,16.5
2016-06-01T00:06:22.694Z,16.4
2016-06-01T00:06:32.694Z,16.4
2016-06-01T00:06:42.694Z,16.4
2016-06-01T00:06:52.697Z,16.4
2016-06-01T00:07:02.697Z,16.4
2016-06-01T00:07:12.697Z,16.4
2016-06-01T00:07:22.697Z,16.4
2016-06-01T00:07:32.682Z,16.4
2016-06-01T00:07:42.682Z,16.4
2016-06-01T00:07:52.685Z,16.4
2016-06-01T00:08:02.669Z,16.4
2016-06-01T00:08:12.669Z,16.4
2016-06-01T00:08:23.450Z,16.4
2016-06-01T00:08:32.888Z,16.4
2016-06-01T00:08:42.685Z,16.4
2016-06-01T00:08:52.827Z,16.4
2016-06-01T00:09:02.671Z,16.4
2016-06-01T00:09:13.749Z,16.4
2016-06-01T00:09:22.531Z,16.4
2016-06-01T00:09:32.671Z,16.5
2016-06-01T00:09:42.499Z,16.5
2016-06-01T00:09:52.681Z,16.5
2016-06-01T00:10:02.665Z,16.5
2016-06-01T00:10:12.665Z,16.5
2016-06-01T00:10:22.665Z,16.5
2016-06-01T00:10:32.665Z,16.5
2016-06-01T00:10:42.681Z,16.5
2016-06-01T00:10:52.694Z,16.5
2016-06-01T00:11:02.694Z,16.5
2016-06-01T00:11:12.694Z,16.5
2016-06-01T00:11:22.678Z,16.5
2016-06-01T00:11:32.678Z,16.5
2016-06-01T00:11:42.538Z,16.5
2016-06-01T00:11:52.706Z,16.5
2016-06-01T00:12:02.706Z,16.5
2016-06-01T00:12:12.706Z,16.5
2016-06-01T00:12:22.706Z,16.5
2016-06-01T00:12:32.691Z,16.5
2016-06-01T00:12:42.534Z,16.5
2016-06-01T00:12:52.705Z,16.5
2016-06-01T00:13:02.705Z,16.4
2016-06-01T00:13:12.721Z,16.4
2016-06-01T00:13:22.705Z,16.4
2016-06-01T00:13:32.705Z,16.4
2016-06-01T00:13:42.705Z,16.4
2016-06-01T00:13:52.733Z,16.4
2016-06-01T00:14:02.733Z,16.4
2016-06-01T00:14:12.717Z,16.4
2016-06-01T00:14:22.577Z,16.4
2016-06-01T00:14:32.717Z,16.4
2016-06-01T00:14:42.702Z,16.4
2016-06-01T00:14:52.718Z,16.4
2016-06-01T00:15:02.562Z,16.4
2016-06-01T00:15:12.718Z,16.4
2016-06-01T00:15:22.718Z,16.4
2016-06-01T00:15:32.718Z,16.4
2016-06-01T00:15:42.718Z,16.4
2016-06-01T00:15:52.729Z,16.3
2016-06-01T00:16:02.729Z,16.4
2016-06-01T00:16:12.713Z,16.4
2016-06-01T00:16:22.729Z,16.4
2016-06-01T00:16:32.713Z,16.4
2016-06-01T00:16:42.713Z,16.4
2016-06-01T00:16:52.711Z,16.4
2016-06-01T00:17:02.711Z,16.4
2016-06-01T00:17:12.711Z,16.4
2016-06-01T00:17:22.726Z,16.4
2016-06-01T00:17:32.711Z,16.4
2016-06-01T00:17:42.711Z,16.3
2016-06-01T00:17:52.769Z,16.3
2016-06-01T00:18:02.707Z,16.4
2016-06-01T00:18:12.707Z,16.3
2016-06-01T00:18:22.707Z,16.3
2016-06-01T00:18:32.707Z,16.3
2016-06-01T00:18:42.707Z,16.3
2016-06-01T00:18:52.563Z,16.3
2016-06-01T00:19:02.703Z,16.3
2016-06-01T00:19:12.547Z,16.3
2016-06-01T00:19:22.688Z,16.3
2016-06-01T00:19:32.703Z,16.3
2016-06-01T00:19:42.703Z,16.3
2016-06-01T00:19:53.993Z,16.3
2016-06-01T00:20:02.696Z,16.3
2016-06-01T00:20:12.711Z,16.3
2016-06-01T00:20:22.696Z,16.3
2016-06-01T00:20:32.696Z,16.4
2016-06-01T00:20:42.696Z,16.3
2016-06-01T00:20:52.686Z,16.3
2016-06-01T00:21:02.686Z,16.3
2016-06-01T00:21:12.670Z,16.3
2016-06-01T00:21:22.530Z,16.3
2016-06-01T00:21:32.686Z,16.3
2016-06-01T00:21:42.686Z,16.3
2016-06-01T00:21:52.676Z,16.3
2016-06-01T00:22:02.536Z,16.3
2016-06-01T00:22:12.676Z,16.3
2016-06-01T00:22:22.676Z,16.3
2016-06-01T00:22:32.676Z,16.3
2016-06-01T00:22:42.676Z,16.3
2016-06-01T00:22:52.667Z,16.2
2016-06-01T00:23:02.667Z,16.2
2016-06-01T00:23:12.667Z,16.3
2016-06-01T00:23:22.667Z,16.3
2016-06-01T00:23:32.526Z,16.2
2016-06-01T00:23:42.667Z,16.2
2016-06-01T00:23:52.518Z,16.3
2016-06-01T00:24:02.518Z,16.2
2016-06-01T00:24:12.674Z,16.2
2016-06-01T00:24:22.658Z,16.2
2016-06-01T00:24:33.096Z,16.2
2016-06-01T00:24:42.643Z,16.2
2016-06-01T00:24:52.661Z,16.2
2016-06-01T00:25:02.646Z,16.2
2016-06-01T00:25:12.646Z,16.2
2016-06-01T00:25:22.661Z,16.2
2016-06-01T00:25:32.646Z,16.2
2016-06-01T00:25:42.802Z,16.2
2016-06-01T00:25:52.634Z,16.2
2016-06-01T00:26:02.618Z,16.2
2016-06-01T00:26:12.634Z,16.2
2016-06-01T00:26:22.634Z,16.3
2016-06-01T00:26:32.618Z,16.3
2016-06-01T00:26:42.634Z,16.3
2016-06-01T00:26:52.638Z,16.3
2016-06-01T00:27:02.622Z,16.3
2016-06-01T00:27:12.622Z,16.3
2016-06-01T00:27:22.622Z,16.3
2016-06-01T00:27:32.607Z,16.3
2016-06-01T00:27:42.607Z,16.3
2016-06-01T00:27:52.611Z,16.3
2016-06-01T00:28:02.595Z,16.3
2016-06-01T00:28:12.611Z,16.3
2016-06-01T00:28:22.611Z,16.3
2016-06-01T00:28:32.595Z,16.4
2016-06-01T00:28:42.595Z,16.4
2016-06-01T00:28:52.599Z,16.3
2016-06-01T00:29:02.599Z,16.3
2016-06-01T00:29:12.599Z,16.3
2016-06-01T00:29:22.599Z,16.3
2016-06-01T00:29:32.599Z,16.3
2016-06-01T00:29:42.583Z,16.3
2016-06-01T00:29:52.586Z,16.3
2016-06-01T00:30:02.586Z,16.3
2016-06-01T00:30:12.586Z,16.3
2016-06-01T00:30:22.586Z,16.3
2016-06-01T00:30:32.571Z,16.3
2016-06-01T00:30:42.571Z,16.3
2016-06-01T00:30:52.433Z,16.3
2016-06-01T00:31:02.574Z,16.3
2016-06-01T00:31:12.574Z,16.3
2016-06-01T00:31:22.574Z,16.3
2016-06-01T00:31:32.558Z,16.3
2016-06-01T00:31:42.402Z,16.3
2016-06-01T00:31:52.561Z,16.3
2016-06-01T00:32:02.561Z,16.3
2016-06-01T00:32:12.561Z,16.2
2016-06-01T00:32:22.546Z,16.2
2016-06-01T00:32:32.546Z,16.2
2016-06-01T00:32:42.546Z,16.2
2016-06-01T00:32:52.564Z,16.2
2016-06-01T00:33:02.549Z,16.2
2016-06-01T00:33:12.533Z,16.2
2016-06-01T00:33:22.533Z,16.2
2016-06-01T00:33:32.533Z,16.2
2016-06-01T00:33:42.533Z,16.2
2016-06-01T00:33:52.536Z,16.2
2016-06-01T00:34:02.536Z,16.3
2016-06-01T00:34:12.520Z,16.3
2016-06-01T00:34:22.520Z,16.3
2016-06-01T00:34:32.520Z,16.3
2016-06-01T00:34:42.520Z,16.3
2016-06-01T00:34:52.523Z,16.3
2016-06-01T00:35:02.367Z,16.3
2016-06-01T00:35:12.539Z,16.3
2016-06-01T00:35:22.508Z,16.3
2016-06-01T00:35:32.508Z,16.3
2016-06-01T00:35:42.555Z,16.3
2016-06-01T00:35:52.354Z,16.3
2016-06-01T00:36:02.511Z,16.3
2016-06-01T00:36:12.495Z,16.3
2016-06-01T00:36:22.511Z,16.3
2016-06-01T00:36:32.495Z,16.3
2016-06-01T00:36:42.511Z,16.3
2016-06-01T00:36:52.498Z,16.3
2016-06-01T00:37:02.326Z,16.3
2016-06-01T00:37:12.482Z,16.2
2016-06-01T00:37:22.482Z,16.2
2016-06-01T00:37:32.482Z,16.2
2016-06-01T00:37:42.467Z,16.2
2016-06-01T00:37:52.484Z,16.2
2016-06-01T00:38:02.484Z,16.2
2016-06-01T00:38:12.469Z,16.2
2016-06-01T00:38:22.469Z,16.2
2016-06-01T00:38:32.875Z,16.2
2016-06-01T00:38:42.469Z,16.2
2016-06-01T00:38:52.894Z,16.2
2016-06-01T00:39:02.316Z,16.2
2016-06-01T00:39:12.456Z,16.2
2016-06-01T00:39:22.394Z,16.2
2016-06-01T00:39:32.456Z,16.2
2016-06-01T00:39:42.456Z,16.3
2016-06-01T00:39:52.459Z,16.3
2016-06-01T00:40:02.444Z,16.3
2016-06-01T00:40:12.444Z,16.3
2016-06-01T00:40:22.303Z,16.3
2016-06-01T00:40:32.444Z,16.2
2016-06-01T00:40:42.444Z,16.2
2016-06-01T00:40:52.447Z,16.2
2016-06-01T00:41:02.431Z,16.2
2016-06-01T00:41:12.431Z,16.2
2016-06-01T00:41:22.447Z,16.2
2016-06-01T00:41:32.431Z,16.2
2016-06-01T00:41:42.431Z,16.2
2016-06-01T00:41:52.277Z,16.2
2016-06-01T00:42:02.417Z,16.2
2016-06-01T00:42:12.417Z,16.2
2016-06-01T00:42:22.417Z,16.2
2016-06-01T00:42:32.417Z,16.2
2016-06-01T00:42:42.417Z,16.2
2016-06-01T00:42:52.420Z,16.2
2016-06-01T00:43:02.405Z,16.2
2016-06-01T00:43:12.405Z,16.2
2016-06-01T00:43:22.405Z,16.2
2016-06-01T00:43:32.420Z,16.2
2016-06-01T00:43:42.389Z,16.2
2016-06-01T00:43:52.407Z,16.2
2016-06-01T00:44:02.391Z,16.2
2016-06-01T00:44:12.391Z,16.2
2016-06-01T00:44:22.391Z,16.2
2016-06-01T00:44:32.407Z,16.2
2016-06-01T00:44:42.391Z,16.2
2016-06-01T00:44:52.378Z,16.2
2016-06-01T00:45:02.394Z,16.2
2016-06-01T00:45:12.378Z,16.1
2016-06-01T00:45:22.378Z,16.1
2016-06-01T00:45:32.222Z,16.2
2016-06-01T00:45:42.378Z,16.1
2016-06-01T00:45:52.381Z,16.1
2016-06-01T00:46:02.381Z,16.2
2016-06-01T00:46:12.366Z,16.1
2016-06-01T00:46:22.350Z,16.1
2016-06-01T00:46:32.366Z,16.1
2016-06-01T00:46:42.350Z,16.1
2016-06-01T00:46:52.352Z,16.1
2016-06-01T00:47:02.352Z,16.1
2016-06-01T00:47:12.352Z,16.1
2016-06-01T00:47:22.352Z,16.1
2016-06-01T00:47:32.352Z,16.1
2016-06-01T00:47:42.196Z,16.1
2016-06-01T00:47:52.340Z,16.1
2016-06-01T00:48:02.355Z,16.1
2016-06-01T00:48:12.340Z,16.1
2016-06-01T00:48:22.340Z,16.2
2016-06-01T00:48:32.340Z,16.2
2016-06-01T00:48:42.324Z,16.2
2016-06-01T00:48:52.327Z,16.2
2016-06-01T00:49:02.327Z,16.1
2016-06-01T00:49:12.327Z,16.1
2016-06-01T00:49:22.327Z,16.1
2016-06-01T00:49:32.327Z,16.1
2016-06-01T00:49:42.311Z,16.1
2016-06-01T00:49:52.314Z,16.1
2016-06-01T00:50:02.299Z,16.1
2016-06-01T00:50:12.314Z,16.2
2016-06-01T00:50:22.299Z,16.2
2016-06-01T00:50:32.142Z,16.2
2016-06-01T00:50:42.314Z,16.2
2016-06-01T00:50:52.301Z,16.2
2016-06-01T00:51:02.301Z,16.2
2016-06-01T00:51:12.301Z,16.1
2016-06-01T00:51:22.285Z,16.2
2016-06-01T00:51:32.285Z,16.1
2016-06-01T00:51:42.301Z,16.2
2016-06-01T00:51:52.132Z,16.2
2016-06-01T00:52:02.288Z,16.2
2016-06-01T00:52:12.288Z,16.2
2016-06-01T00:52:22.272Z,16.2
2016-06-01T00:52:32.272Z,16.2
2016-06-01T00:52:42.288Z,16.1
2016-06-01T00:52:52.275Z,16.1
2016-06-01T00:53:02.275Z,16.1
2016-06-01T00:53:12.291Z,16.1
2016-06-01T00:53:22.275Z,16.1
2016-06-01T00:53:32.635Z,16.2
2016-06-01T00:53:42.463Z,16.1
2016-06-01T00:53:52.277Z,16.1
2016-06-01T00:54:02.106Z,16.1
2016-06-01T00:54:12.262Z,16.1
2016-06-01T00:54:23.293Z,16.1
2016-06-01T00:54:32.543Z,16.2
2016-06-01T00:54:42.246Z,16.1
2016-06-01T00:54:52.249Z,16.1
2016-06-01T00:55:02.249Z,16.2
2016-06-01T00:55:12.093Z,16.2
2016-06-01T00:55:22.234Z,16.1
2016-06-01T00:55:32.234Z,16.2
2016-06-01T00:55:42.234Z,16.2
2016-06-01T00:55:52.080Z,16.2
2016-06-01T00:56:02.237Z,16.2
2016-06-01T00:56:12.237Z,16.2
2016-06-01T00:56:22.221Z,16.2
2016-06-01T00:56:32.221Z,16.2
2016-06-01T00:56:42.065Z,16.2
2016-06-01T00:56:52.223Z,16.2
2016-06-01T00:57:02.207Z,16.2
2016-06-01T00:57:12.207Z,16.1
2016-06-01T00:57:22.067Z,16.1
2016-06-01T00:57:32.207Z,16.1
2016-06-01T00:57:42.067Z,16.2
2016-06-01T00:57:52.210Z,16.1
2016-06-01T00:58:02.038Z,16.2
2016-06-01T00:58:12.210Z,16.1
2016-06-01T00:58:22.195Z,16.1
2016-06-01T00:58:32.195Z,16.1
2016-06-01T00:58:42.195Z,16.1
2016-06-01T00:58:52.198Z,16.1
2016-06-01T00:59:02.198Z,16.1
2016-06-01T00:59:12.182Z,16.1
2016-06-01T00:59:22.182Z,16.1
2016-06-01T00:59:32.182Z,16.1
2016-06-01T00:59:42.182Z,16.1
2016-06-01T00:59:52.184Z,16.1
2016-06-01T01:00:02.168Z,16.2
2016-06-01T01:00:12.168Z,16.2
2016-06-01T01:00:22.168Z,16.2
2016-06-01T01:00:32.168Z,16.1
2016-06-01T01:00:42.168Z,16.1
2016-06-01T01:00:52.171Z,16.1
2016-06-01T01:01:02.171Z,16.1
2016-06-01T01:01:12.171Z,16.1
2016-06-01T01:01:22.171Z,16.1
2016-06-01T01:01:32.171Z,16.1
2016-06-01T01:01:42.156Z,16.1
2016-06-01T01:01:52.159Z,16.1
2016-06-01T01:02:02.143Z,16.1
2016-06-01T01:02:12.143Z,16.1
2016-06-01T01:02:22.143Z,16.1
2016-06-01T01:02:32.003Z,16.1
2016-06-01T01:02:42.128Z,16.1
2016-06-01T01:02:52.162Z,16.1
2016-06-01T01:03:02.131Z,16.1
2016-06-01T01:03:12.146Z,16.1
2016-06-01T01:03:22.131Z,16.1
2016-06-01T01:03:32.131Z,16.1
2016-06-01T01:03:42.131Z,16.1
2016-06-01T01:03:52.133Z,16.1
2016-06-01T01:04:02.117Z,16.1
2016-06-01T01:04:12.117Z,16.1
2016-06-01T01:04:21.961Z,16.1
2016-06-01T01:04:32.117Z,16.1
2016-06-01T01:04:42.117Z,16.1
2016-06-01T01:04:52.104Z,16.1
2016-06-01T01:05:02.104Z,16.1
2016-06-01T01:05:12.104Z,16.1
2016-06-01T01:05:22.104Z,16.1
2016-06-01T01:05:32.104Z,16.1
2016-06-01T01:05:42.089Z,16.1
2016-06-01T01:05:52.091Z,16.1
2016-06-01T01:06:02.091Z,16.1
2016-06-01T01:06:12.091Z,16.1
2016-06-01T01:06:22.091Z,16.1
2016-06-01T01:06:32.091Z,16.1
2016-06-01T01:06:42.075Z,16.1
2016-06-01T01:06:52.078Z,16.1
2016-06-01T01:07:02.078Z,16
2016-06-01T01:07:12.078Z,16
2016-06-01T01:07:21.922Z,16
2016-06-01T01:07:32.078Z,16
2016-06-01T01:07:42.062Z,16
2016-06-01T01:07:52.081Z,16
2016-06-01T01:08:02.065Z,16
2016-06-01T01:08:11.925Z,16
2016-06-01T01:08:22.081Z,16
2016-06-01T01:08:32.222Z,16
2016-06-01T01:08:42.581Z,16
2016-06-01T01:08:52.209Z,16.1
2016-06-01T01:09:02.068Z,16.1
2016-06-01T01:09:12.053Z,16.1
2016-06-01T01:09:22.037Z,16.1
2016-06-01T01:09:32.490Z,16.1
2016-06-01T01:09:42.037Z,16
2016-06-01T01:09:52.039Z,16
2016-06-01T01:10:02.039Z,16
2016-06-01T01:10:12.039Z,16
2016-06-01T01:10:22.039Z,16
2016-06-01T01:10:32.024Z,16
2016-06-01T01:10:42.024Z,16
2016-06-01T01:10:52.027Z,16
2016-06-01T01:11:02.027Z,16
2016-06-01T01:11:12.027Z,16
2016-06-01T01:11:22.027Z,16
2016-06-01T01:11:31.870Z,16
2016-06-01T01:11:42.027Z,16
2016-06-01T01:11:52.014Z,16
2016-06-01T01:12:01.998Z,16
2016-06-01T01:12:12.014Z,16
2016-06-01T01:12:22.014Z,16
2016-06-01T01:12:31.998Z,16
2016-06-01T01:12:41.998Z,16
2016-06-01T01:12:52.000Z,16
2016-06-01T01:13:02.000Z,16
2016-06-01T01:13:11.985Z,16
2016-06-01T01:13:22.000Z,16
2016-06-01T01:13:31.985Z,16
2016-06-01T01:13:41.985Z,16
2016-06-01T01:13:52.003Z,16
2016-06-01T01:14:01.972Z,16
2016-06-01T01:14:11.988Z,16
2016-06-01T01:14:21.988Z,16
2016-06-01T01:14:31.972Z,16
2016-06-01T01:14:41.831Z,16
2016-06-01T01:14:51.975Z,15.9
2016-06-01T01:15:01.975Z,15.9
2016-06-01T01:15:11.975Z,15.9
2016-06-01T01:15:21.975Z,15.9
2016-06-01T01:15:31.959Z,15.9
2016-06-01T01:15:41.959Z,15.9
2016-06-01T01:15:51.962Z,15.9
2016-06-01T01:16:01.962Z,15.9
2016-06-01T01:16:11.962Z,15.9
2016-06-01T01:16:21.962Z,15.9
2016-06-01T01:16:31.947Z,15.9
2016-06-01T01:16:41.962Z,15.9
2016-06-01T01:16:51.949Z,15.9
2016-06-01T01:17:01.949Z,15.9
2016-06-01T01:17:11.793Z,15.9
2016-06-01T01:17:21.949Z,15.9
2016-06-01T01:17:31.949Z,15.9
2016-06-01T01:17:41.933Z,15.9
2016-06-01T01:17:51.999Z,15.9
2016-06-01T01:18:01.936Z,15.9
2016-06-01T01:18:11.936Z,15.9
2016-06-01T01:18:21.936Z,15.9
2016-06-01T01:18:31.921Z,15.9
2016-06-01T01:18:41.905Z,15.9
2016-06-01T01:18:51.923Z,15.9
2016-06-01T01:19:01.907Z,15.9
2016-06-01T01:19:11.907Z,15.9
2016-06-01T01:19:21.766Z,15.9
2016-06-01T01:19:31.907Z,15.9
2016-06-01T01:19:41.907Z,15.9
2016-06-01T01:19:51.894Z,15.9
2016-06-01T01:20:01.910Z,15.9
2016-06-01T01:20:11.894Z,15.9
2016-06-01T01:20:21.894Z,15.9
2016-06-01T01:20:31.894Z,15.9
2016-06-01T01:20:41.879Z,15.9
2016-06-01T01:20:51.897Z,15.9
2016-06-01T01:21:01.897Z,15.9
2016-06-01T01:21:11.897Z,15.9
2016-06-01T01:21:21.882Z,16
2016-06-01T01:21:31.882Z,15.9
2016-06-01T01:21:41.882Z,15.9
2016-06-01T01:21:51.885Z,15.9
2016-06-01T01:22:01.885Z,15.9
2016-06-01T01:22:11.869Z,15.9
2016-06-01T01:22:21.869Z,15.9
2016-06-01T01:22:31.885Z,15.9
2016-06-01T01:22:41.869Z,15.9
2016-06-01T01:22:51.855Z,15.9
2016-06-01T01:23:01.855Z,16
2016-06-01T01:23:11.871Z,15.9
2016-06-01T01:23:21.840Z,15.9
2016-06-01T01:23:32.387Z,15.9
2016-06-01T01:23:41.699Z,15.9
2016-06-01T01:23:51.858Z,15.9
2016-06-01T01:24:01.858Z,15.9
2016-06-01T01:24:11.702Z,15.9
2016-06-01T01:24:21.687Z,15.9
2016-06-01T01:24:31.843Z,15.9
2016-06-01T01:24:41.687Z,15.9
2016-06-01T01:24:51.830Z,15.9
2016-06-01T01:25:01.846Z,15.9
2016-06-01T01:25:11.830Z,15.9
2016-06-01T01:25:21.830Z,15.9
2016-06-01T01:25:31.830Z,15.9
2016-06-01T01:25:41.815Z,15.9
2016-06-01T01:25:51.817Z,15.9
2016-06-01T01:26:01.676Z,15.9
2016-06-01T01:26:11.817Z,15.9
2016-06-01T01:26:21.817Z,15.9
2016-06-01T01:26:31.817Z,15.9
2016-06-01T01:26:41.801Z,15.9
2016-06-01T01:26:51.804Z,15.9
2016-06-01T01:27:01.804Z,15.9
2016-06-01T01:27:11.804Z,15.9
2016-06-01T01:27:21.804Z,15.9
2016-06-01T01:27:31.820Z,15.9
2016-06-01T01:27:41.804Z,16
2016-06-01T01:27:51.807Z,16
2016-06-01T01:28:01.791Z,15.9
2016-06-01T01:28:11.635Z,15.9
2016-06-01T01:28:21.791Z,15.9
2016-06-01T01:28:31.791Z,15.9
2016-06-01T01:28:41.791Z,15.9
2016-06-01T01:28:51.779Z,15.9
2016-06-01T01:29:01.779Z,15.9
2016-06-01T01:29:11.779Z,15.9
2016-06-01T01:29:21.763Z,15.9
2016-06-01T01:29:31.763Z,15.9
2016-06-01T01:29:41.763Z,15.9
2016-06-01T01:29:51.765Z,15.9
2016-06-01T01:30:01.765Z,15.9
2016-06-01T01:30:11.765Z,15.9
2016-06-01T01:30:21.765Z,15.9
2016-06-01T01:30:31.749Z,15.9
2016-06-01T01:30:41.765Z,15.9
2016-06-01T01:30:51.751Z,15.9
2016-06-01T01:31:01.751Z,15.9
2016-06-01T01:31:11.751Z,15.9
2016-06-01T01:31:21.736Z,15.9
2016-06-01T01:31:31.736Z,15.9
2016-06-01T01:31:41.751Z,15.9
2016-06-01T01:31:51.739Z,15.9
2016-06-01T01:32:01.583Z,15.9
2016-06-01T01:32:11.583Z,15.9
2016-06-01T01:32:21.723Z,15.9
2016-06-01T01:32:31.583Z,15.9
2016-06-01T01:32:41.723Z,15.9
2016-06-01T01:32:51.726Z,15.9
2016-06-01T01:33:01.742Z,15.9
2016-06-01T01:33:11.570Z,15.9
2016-06-01T01:33:21.726Z,15.9
2016-06-01T01:33:31.711Z,15.9
2016-06-01T01:33:41.726Z,15.9
2016-06-01T01:33:51.729Z,15.9
2016-06-01T01:34:01.714Z,15.9
2016-06-01T01:34:11.714Z,15.9
2016-06-01T01:34:21.698Z,15.9
2016-06-01T01:34:31.698Z,15.9
2016-06-01T01:34:41.698Z,15.9
2016-06-01T01:34:51.700Z,15.9
2016-06-01T01:35:01.700Z,15.9
2016-06-01T01:35:11.716Z,15.9
2016-06-01T01:35:21.700Z,15.9
2016-06-01T01:35:31.528Z,15.9
2016-06-01T01:35:41.684Z,15.9
2016-06-01T01:35:51.703Z,15.9
2016-06-01T01:36:01.672Z,15.9
2016-06-01T01:36:11.687Z,15.9
2016-06-01T01:36:21.687Z,15.9
2016-06-01T01:36:31.672Z,15.9
2016-06-01T01:36:41.672Z,15.9
2016-06-01T01:36:51.675Z,15.9
2016-06-01T01:37:01.675Z,15.9
2016-06-01T01:37:11.659Z,15.9
2016-06-01T01:37:21.675Z,15.9
2016-06-01T01:37:31.675Z,15.9
2016-06-01T01:37:41.659Z,15.9
2016-06-01T01:37:51.678Z,15.9
2016-06-01T01:38:01.662Z,15.9
2016-06-01T01:38:11.662Z,15.9
2016-06-01T01:38:22.021Z,15.9
2016-06-01T01:38:31.959Z,15.9
2016-06-01T01:38:41.662Z,15.9
2016-06-01T01:38:51.648Z,15.9
2016-06-01T01:39:01.648Z,15.9
2016-06-01T01:39:11.742Z,15.9
2016-06-01T01:39:21.648Z,15.9
2016-06-01T01:39:31.695Z,15.9
2016-06-01T01:39:41.633Z,15.9
2016-06-01T01:39:51.636Z,15.9
2016-06-01T01:40:01.636Z,15.9
2016-06-01T01:40:11.620Z,15.9
2016-06-01T01:40:21.620Z,15.9
2016-06-01T01:40:31.620Z,15.9
2016-06-01T01:40:41.620Z,15.9
2016-06-01T01:40:51.638Z,15.9
2016-06-01T01:41:01.622Z,15.9
2016-06-01T01:41:11.622Z,15.9
2016-06-01T01:41:21.622Z,15.9
2016-06-01T01:41:31.607Z,15.9
2016-06-01T01:41:41.591Z,15.9
2016-06-01T01:41:51.610Z,15.9
2016-06-01T01:42:01.610Z,15.9
2016-06-01T01:42:11.594Z,15.9
2016-06-01T01:42:21.594Z,15.9
2016-06-01T01:42:31.594Z,15.9
2016-06-01T01:42:41.578Z,15.9
2016-06-01T01:42:51.597Z,15.9
2016-06-01T01:43:01.581Z,15.9
2016-06-01T01:43:11.581Z,15.9
2016-06-01T01:43:21.597Z,15.9
2016-06-01T01:43:31.581Z,15.9
2016-06-01T01:43:41.581Z,15.9
2016-06-01T01:43:51.569Z,15.9
2016-06-01T01:44:01.569Z,15.9
2016-06-01T01:44:11.569Z,15.9
2016-06-01T01:44:21.569Z,15.9
2016-06-01T01:44:31.569Z,15.9
2016-06-01T01:44:41.412Z,15.8
2016-06-01T01:44:51.555Z,15.8
2016-06-01T01:45:01.571Z,15.9
2016-06-01T01:45:11.571Z,15.9
2016-06-01T01:45:21.571Z,15.9
2016-06-01T01:45:31.555Z,15.9
2016-06-01T01:45:41.555Z,15.9
2016-06-01T01:45:51.402Z,15.9
2016-06-01T01:46:01.558Z,15.9
2016-06-01T01:46:11.542Z,15.9
2016-06-01T01:46:21.542Z,15.9
2016-06-01T01:46:31.542Z,15.9
2016-06-01T01:46:41.542Z,15.9
2016-06-01T01:46:51.530Z,15.8
2016-06-01T01:47:01.530Z,15.8
2016-06-01T01:47:11.530Z,15.8
2016-06-01T01:47:21.530Z,15.8
2016-06-01T01:47:31.530Z,15.9
2016-06-01T01:47:41.530Z,15.9
2016-06-01T01:47:51.517Z,15.9
2016-06-01T01:48:01.377Z,15.8
2016-06-01T01:48:11.517Z,15.8
2016-06-01T01:48:21.517Z,15.8
2016-06-01T01:48:31.517Z,15.8
2016-06-01T01:48:41.517Z,15.8
2016-06-01T01:48:51.504Z,15.8
2016-06-01T01:49:01.504Z,15.8
2016-06-01T01:49:11.504Z,15.8
2016-06-01T01:49:21.488Z,15.8
2016-06-01T01:49:31.504Z,15.8
2016-06-01T01:49:41.504Z,15.8
2016-06-01T01:49:51.507Z,15.8
2016-06-01T01:50:01.507Z,15.8
2016-06-01T01:50:11.335Z,15.8
2016-06-01T01:50:21.491Z,15.8
2016-06-01T01:50:31.491Z,15.8
2016-06-01T01:50:41.475Z,15.8
2016-06-01T01:50:51.338Z,15.8
2016-06-01T01:51:01.478Z,15.8
2016-06-01T01:51:11.478Z,15.8
2016-06-01T01:51:21.478Z,15.8
2016-06-01T01:51:31.463Z,15.8
2016-06-01T01:51:41.322Z,15.8
2016-06-01T01:51:51.465Z,15.8
2016-06-01T01:52:01.324Z,15.8
2016-06-01T01:52:11.308Z,15.8
2016-06-01T01:52:21.465Z,15.8
2016-06-01T01:52:31.465Z,15.8
2016-06-01T01:52:41.465Z,15.8
2016-06-01T01:52:51.296Z,15.7
2016-06-01T01:53:01.452Z,15.8
2016-06-01T01:53:11.452Z,15.8
2016-06-01T01:53:21.452Z,15.8
2016-06-01T01:53:31.452Z,15.8
2016-06-01T01:53:41.733Z,15.8
2016-06-01T01:53:51.470Z,15.7
2016-06-01T01:54:01.548Z,15.7
2016-06-01T01:54:11.423Z,15.7
2016-06-01T01:54:21.438Z,15.7
2016-06-01T01:54:31.767Z,15.7
2016-06-01T01:54:41.454Z,15.7
2016-06-01T01:54:51.426Z,15.7
2016-06-01T01:55:01.426Z,15.7
2016-06-01T01:55:11.426Z,15.7
2016-06-01T01:55:21.410Z,15.7
2016-06-01T01:55:31.410Z,15.7
2016-06-01T01:55:41.426Z,15.7
2016-06-01T01:55:51.413Z,15.7
2016-06-01T01:56:01.413Z,15.7
2016-06-01T01:56:11.429Z,15.7
2016-06-01T01:56:21.413Z,15.7
2016-06-01T01:56:31.398Z,15.7
2016-06-01T01:56:41.398Z,15.7
2016-06-01T01:56:51.401Z,15.7
2016-06-01T01:57:01.401Z,15.7
2016-06-01T01:57:11.416Z,15.7
2016-06-01T01:57:21.401Z,15.7
2016-06-01T01:57:31.385Z,15.6
2016-06-01T01:57:41.385Z,15.7
2016-06-01T01:57:51.387Z,15.7
2016-06-01T01:58:01.371Z,15.7
2016-06-01T01:58:11.387Z,15.6
2016-06-01T01:58:21.387Z,15.6
2016-06-01T01:58:31.387Z,15.6
2016-06-01T01:58:41.371Z,15.6
2016-06-01T01:58:51.374Z,15.6
2016-06-01T01:59:01.390Z,15.6
2016-06-01T01:59:11.374Z,15.6
2016-06-01T01:59:21.374Z,15.6
2016-06-01T01:59:31.202Z,15.6
2016-06-01T01:59:41.359Z,15.6
2016-06-01T01:59:51.346Z,15.6
2016-06-01T02:00:01.362Z,15.6
2016-06-01T02:00:11.346Z,15.6
2016-06-01T02:00:21.346Z,15.6
2016-06-01T02:00:31.346Z,15.6
2016-06-01T02:00:41.346Z,15.6
2016-06-01T02:00:51.332Z,15.6
2016-06-01T02:01:01.364Z,15.6
2016-06-01T02:01:11.332Z,15.6
2016-06-01T02:01:21.332Z,15.6
2016-06-01T02:01:31.332Z,15.5
2016-06-01T02:01:41.332Z,15.6
2016-06-01T02:01:51.351Z,15.5
2016-06-01T02:02:01.335Z,15.5
2016-06-01T02:02:11.335Z,15.5
2016-06-01T02:02:21.320Z,15.6
2016-06-01T02:02:31.320Z,15.5
2016-06-01T02:02:41.320Z,15.6
2016-06-01T02:02:51.166Z,15.6
2016-06-01T02:03:01.306Z,15.5
2016-06-01T02:03:11.306Z,15.6
2016-06-01T02:03:21.306Z,15.6
2016-06-01T02:03:31.306Z,15.6
2016-06-01T02:03:41.306Z,15.6
2016-06-01T02:03:51.326Z,15.6
2016-06-01T02:04:01.310Z,15.6
2016-06-01T02:04:11.295Z,15.6
2016-06-01T02:04:21.295Z,15.6
2016-06-01T02:04:31.295Z,15.6
2016-06-01T02:04:41.295Z,15.6
2016-06-01T02:04:51.281Z,15.6
2016-06-01T02:05:01.281Z,15.6
2016-06-01T02:05:11.281Z,15.6
2016-06-01T02:05:21.297Z,15.6
2016-06-01T02:05:31.125Z,15.6
2016-06-01T02:05:41.281Z,15.6
2016-06-01T02:05:51.128Z,15.6
2016-06-01T02:06:01.268Z,15.6
2016-06-01T02:06:11.112Z,15.6
2016-06-01T02:06:21.284Z,15.6
2016-06-01T02:06:31.253Z,15.6
2016-06-01T02:06:41.268Z,15.6
2016-06-01T02:06:51.256Z,15.6
2016-06-01T02:07:01.256Z,15.6
2016-06-01T02:07:11.256Z,15.6
2016-06-01T02:07:21.256Z,15.6
2016-06-01T02:07:31.256Z,15.6
2016-06-01T02:07:41.256Z,15.6
2016-06-01T02:07:51.258Z,15.6
2016-06-01T02:08:01.242Z,15.6
2016-06-01T02:08:11.242Z,15.6
2016-06-01T02:08:21.695Z,15.6
2016-06-01T02:08:32.320Z,15.6
2016-06-01T02:08:41.820Z,15.6
2016-06-01T02:08:51.447Z,15.7
2016-06-01T02:09:01.244Z,15.6
2016-06-01T02:09:11.228Z,15.7
2016-06-01T02:09:22.010Z,15.7
2016-06-01T02:09:31.244Z,15.7
2016-06-01T02:09:41.353Z,15.7
2016-06-01T02:09:51.232Z,15.7
2016-06-01T02:10:01.217Z,15.7
2016-06-01T02:10:11.217Z,15.7
2016-06-01T02:10:21.217Z,15.7
2016-06-01T02:10:31.217Z,15.7
2016-06-01T02:10:41.217Z,15.6
2016-06-01T02:10:51.219Z,15.6
2016-06-01T02:11:01.219Z,15.7
2016-06-01T02:11:11.203Z,15.6
2016-06-01T02:11:21.188Z,15.6
2016-06-01T02:11:31.188Z,15.6
2016-06-01T02:11:41.188Z,15.6
2016-06-01T02:11:51.191Z,15.6
2016-06-01T02:12:01.191Z,15.6
2016-06-01T02:12:11.191Z,15.6
2016-06-01T02:12:21.191Z,15.6
2016-06-01T02:12:31.175Z,15.7
2016-06-01T02:12:41.019Z,15.7
2016-06-01T02:12:51.178Z,15.7
2016-06-01T02:13:01.178Z,15.7
2016-06-01T02:13:11.178Z,15.6
2016-06-01T02:13:21.162Z,15.6
2016-06-01T02:13:31.178Z,15.6
2016-06-01T02:13:41.162Z,15.6
2016-06-01T02:13:51.164Z,15.6